sensor_id;sensor_type;location;lat;lon;timestamp;P1;durP1;ratioP1;P2;durP2;ratioP2
36593;SDS011;22603;47.900;8.146;2023-08-06T00:01:00;3.63;;;1.50;;
36593;SDS011;22603;47.900;8.146;2023-08-06T00:03:46;4.30;;;1.60;;
36593;SDS011;22603;47.900;8.146;2023-08-06T00:06:34;5.13;;;1.43;;
36593;SDS011;22603;47.900;8.146;2023-08-06T00:09:21;4.70;;;1.60;;
36593;SDS011;22603;47.900;8.146;2023-08-06T00:12:08;2.23;;;1.20;;
36593;SDS011;22603;47.900;8.146;2023-08-06T00:14:54;3.27;;;1.30;;
36593;SDS011;22603;47.900;8.146;2023-08-06T00:17:41;4.23;;;1.60;;
36593;SDS011;22603;47.900;8.146;2023-08-06T00:20:28;6.67;;;1.40;;
36593;SDS011;22603;47.900;8.146;2023-08-06T00:23:15;2.50;;;1.00;;
36593;SDS011;22603;47.900;8.146;2023-08-06T00:26:03;2.60;;;1.07;;
36593;SDS011;22603;47.900;8.146;2023-08-06T00:28:49;2.33;;;1.17;;
36593;SDS011;22603;47.900;8.146;2023-08-06T00:31:36;7.43;;;1.23;;
36593;SDS011;22603;47.900;8.146;2023-08-06T00:34:23;3.37;;;1.07;;
36593;SDS011;22603;47.900;8.146;2023-08-06T00:37:09;2.27;;;0.97;;
36593;SDS011;22603;47.900;8.146;2023-08-06T00:39:57;2.30;;;1.00;;
36593;SDS011;22603;47.900;8.146;2023-08-06T00:42:44;2.43;;;1.10;;
36593;SDS011;22603;47.900;8.146;2023-08-06T00:45:32;3.10;;;1.20;;
36593;SDS011;22603;47.900;8.146;2023-08-06T00:48:21;2.57;;;1.00;;
36593;SDS011;22603;47.900;8.146;2023-08-06T00:51:08;2.27;;;0.97;;
36593;SDS011;22603;47.900;8.146;2023-08-06T00:53:56;2.80;;;1.20;;
36593;SDS011;22603;47.900;8.146;2023-08-06T00:56:44;2.30;;;1.07;;
36593;SDS011;22603;47.900;8.146;2023-08-06T00:59:32;2.67;;;1.13;;
36593;SDS011;22603;47.900;8.146;2023-08-06T01:02:20;2.87;;;1.00;;
36593;SDS011;22603;47.900;8.146;2023-08-06T01:05:07;2.23;;;1.17;;
36593;SDS011;22603;47.900;8.146;2023-08-06T01:07:58;4.03;;;1.20;;
36593;SDS011;22603;47.900;8.146;2023-08-06T01:10:59;2.40;;;1.20;;
36593;SDS011;22603;47.900;8.146;2023-08-06T01:13:58;2.73;;;1.07;;
36593;SDS011;22603;47.900;8.146;2023-08-06T01:16:49;2.07;;;1.03;;
36593;SDS011;22603;47.900;8.146;2023-08-06T01:19:37;3.03;;;1.20;;
36593;SDS011;22603;47.900;8.146;2023-08-06T01:22:25;2.73;;;1.10;;
36593;SDS011;22603;47.900;8.146;2023-08-06T01:25:12;2.73;;;1.20;;
36593;SDS011;22603;47.900;8.146;2023-08-06T01:28:04;6.80;;;1.37;;
36593;SDS011;22603;47.900;8.146;2023-08-06T01:30:57;3.77;;;1.50;;
36593;SDS011;22603;47.900;8.146;2023-08-06T01:33:48;5.57;;;1.20;;
36593;SDS011;22603;47.900;8.146;2023-08-06T01:36:36;3.73;;;1.00;;
36593;SDS011;22603;47.900;8.146;2023-08-06T01:39:25;6.00;;;1.20;;
36593;SDS011;22603;47.900;8.146;2023-08-06T01:42:11;4.50;;;1.20;;
36593;SDS011;22603;47.900;8.146;2023-08-06T01:45:01;2.53;;;1.20;;
36593;SDS011;22603;47.900;8.146;2023-08-06T01:47:47;2.47;;;1.10;;
36593;SDS011;22603;47.900;8.146;2023-08-06T01:50:35;3.77;;;1.13;;
36593;SDS011;22603;47.900;8.146;2023-08-06T01:53:21;1.67;;;1.00;;
36593;SDS011;22603;47.900;8.146;2023-08-06T01:56:09;3.27;;;1.30;;
36593;SDS011;22603;47.900;8.146;2023-08-06T01:58:56;1.73;;;1.13;;
36593;SDS011;22603;47.900;8.146;2023-08-06T02:01:42;3.20;;;1.20;;
36593;SDS011;22603;47.900;8.146;2023-08-06T02:04:29;4.47;;;1.20;;
36593;SDS011;22603;47.900;8.146;2023-08-06T02:07:16;3.07;;;1.10;;
36593;SDS011;22603;47.900;8.146;2023-08-06T02:10:02;5.00;;;1.53;;
36593;SDS011;22603;47.900;8.146;2023-08-06T02:12:51;4.33;;;1.00;;
36593;SDS011;22603;47.900;8.146;2023-08-06T02:15:41;3.03;;;1.17;;
36593;SDS011;22603;47.900;8.146;2023-08-06T02:18:28;4.23;;;1.10;;
36593;SDS011;22603;47.900;8.146;2023-08-06T02:21:15;4.97;;;1.30;;
36593;SDS011;22603;47.900;8.146;2023-08-06T02:24:02;3.40;;;1.13;;
36593;SDS011;22603;47.900;8.146;2023-08-06T02:26:48;7.83;;;1.30;;
36593;SDS011;22603;47.900;8.146;2023-08-06T02:29:37;5.03;;;1.20;;
36593;SDS011;22603;47.900;8.146;2023-08-06T02:32:26;4.77;;;1.20;;
36593;SDS011;22603;47.900;8.146;2023-08-06T02:35:14;5.93;;;1.80;;
36593;SDS011;22603;47.900;8.146;2023-08-06T02:38:01;6.93;;;1.17;;
36593;SDS011;22603;47.900;8.146;2023-08-06T02:40:48;5.17;;;1.40;;
36593;SDS011;22603;47.900;8.146;2023-08-06T02:43:35;5.63;;;1.60;;
36593;SDS011;22603;47.900;8.146;2023-08-06T02:46:23;2.80;;;1.20;;
36593;SDS011;22603;47.900;8.146;2023-08-06T02:49:10;5.10;;;1.10;;
36593;SDS011;22603;47.900;8.146;2023-08-06T02:51:56;3.70;;;0.80;;
36593;SDS011;22603;47.900;8.146;2023-08-06T02:54:43;5.67;;;1.20;;
36593;SDS011;22603;47.900;8.146;2023-08-06T02:57:30;1.67;;;0.80;;
36593;SDS011;22603;47.900;8.146;2023-08-06T03:00:16;1.93;;;0.90;;
36593;SDS011;22603;47.900;8.146;2023-08-06T03:03:05;2.07;;;0.70;;
36593;SDS011;22603;47.900;8.146;2023-08-06T03:05:52;3.50;;;1.03;;
36593;SDS011;22603;47.900;8.146;2023-08-06T03:08:38;2.33;;;0.87;;
36593;SDS011;22603;47.900;8.146;2023-08-06T03:11:25;6.23;;;1.07;;
36593;SDS011;22603;47.900;8.146;2023-08-06T03:14:11;1.53;;;0.70;;
36593;SDS011;22603;47.900;8.146;2023-08-06T03:16:58;4.43;;;0.93;;
36593;SDS011;22603;47.900;8.146;2023-08-06T03:19:46;1.07;;;0.70;;
36593;SDS011;22603;47.900;8.146;2023-08-06T03:22:33;1.83;;;0.80;;
36593;SDS011;22603;47.900;8.146;2023-08-06T03:25:19;1.70;;;0.60;;
36593;SDS011;22603;47.900;8.146;2023-08-06T03:28:06;4.80;;;1.03;;
36593;SDS011;22603;47.900;8.146;2023-08-06T03:30:58;3.63;;;0.63;;
36593;SDS011;22603;47.900;8.146;2023-08-06T03:33:46;3.17;;;0.63;;
36593;SDS011;22603;47.900;8.146;2023-08-06T03:36:34;0.50;;;0.50;;
36593;SDS011;22603;47.900;8.146;2023-08-06T03:39:21;2.00;;;0.50;;
36593;SDS011;22603;47.900;8.146;2023-08-06T03:42:08;1.70;;;0.60;;
36593;SDS011;22603;47.900;8.146;2023-08-06T03:44:54;1.40;;;0.60;;
36593;SDS011;22603;47.900;8.146;2023-08-06T03:47:41;1.17;;;0.80;;
36593;SDS011;22603;47.900;8.146;2023-08-06T03:50:27;0.43;;;0.43;;
36593;SDS011;22603;47.900;8.146;2023-08-06T03:53:15;1.37;;;0.53;;
36593;SDS011;22603;47.900;8.146;2023-08-06T03:56:02;0.43;;;0.30;;
36593;SDS011;22603;47.900;8.146;2023-08-06T03:58:49;0.40;;;0.40;;
36593;SDS011;22603;47.900;8.146;2023-08-06T04:01:35;0.40;;;0.40;;
36593;SDS011;22603;47.900;8.146;2023-08-06T04:04:22;0.53;;;0.50;;
36593;SDS011;22603;47.900;8.146;2023-08-06T04:07:09;2.00;;;0.60;;
36593;SDS011;22603;47.900;8.146;2023-08-06T04:09:58;2.20;;;0.70;;
36593;SDS011;22603;47.900;8.146;2023-08-06T04:12:45;0.77;;;0.60;;
36593;SDS011;22603;47.900;8.146;2023-08-06T04:15:33;2.43;;;0.43;;
36593;SDS011;22603;47.900;8.146;2023-08-06T04:18:19;0.80;;;0.50;;
36593;SDS011;22603;47.900;8.146;2023-08-06T04:21:06;1.67;;;0.53;;
36593;SDS011;22603;47.900;8.146;2023-08-06T04:23:53;1.03;;;0.50;;
36593;SDS011;22603;47.900;8.146;2023-08-06T04:26:41;0.93;;;0.63;;
36593;SDS011;22603;47.900;8.146;2023-08-06T04:29:28;1.00;;;0.50;;
36593;SDS011;22603;47.900;8.146;2023-08-06T04:32:15;0.83;;;0.50;;
36593;SDS011;22603;47.900;8.146;2023-08-06T04:35:02;1.07;;;0.53;;
36593;SDS011;22603;47.900;8.146;2023-08-06T04:37:49;1.70;;;0.50;;
36593;SDS011;22603;47.900;8.146;2023-08-06T04:40:36;0.27;;;0.27;;
36593;SDS011;22603;47.900;8.146;2023-08-06T04:43:24;0.50;;;0.50;;
36593;SDS011;22603;47.900;8.146;2023-08-06T04:46:11;0.97;;;0.40;;
36593;SDS011;22603;47.900;8.146;2023-08-06T04:48:58;0.40;;;0.40;;
36593;SDS011;22603;47.900;8.146;2023-08-06T04:51:44;0.40;;;0.40;;
36593;SDS011;22603;47.900;8.146;2023-08-06T04:54:31;3.53;;;0.60;;
36593;SDS011;22603;47.900;8.146;2023-08-06T04:57:18;0.40;;;0.40;;
36593;SDS011;22603;47.900;8.146;2023-08-06T05:00:07;1.13;;;0.40;;
36593;SDS011;22603;47.900;8.146;2023-08-06T05:02:54;0.50;;;0.50;;
36593;SDS011;22603;47.900;8.146;2023-08-06T05:05:40;0.27;;;0.27;;
36593;SDS011;22603;47.900;8.146;2023-08-06T05:08:27;0.90;;;0.50;;
36593;SDS011;22603;47.900;8.146;2023-08-06T05:11:14;0.33;;;0.33;;
36593;SDS011;22603;47.900;8.146;2023-08-06T05:14:00;0.97;;;0.47;;
36593;SDS011;22603;47.900;8.146;2023-08-06T05:16:48;0.40;;;0.40;;
36593;SDS011;22603;47.900;8.146;2023-08-06T05:19:35;0.47;;;0.47;;
36593;SDS011;22603;47.900;8.146;2023-08-06T05:22:21;1.20;;;0.40;;
36593;SDS011;22603;47.900;8.146;2023-08-06T05:25:08;0.30;;;0.30;;
36593;SDS011;22603;47.900;8.146;2023-08-06T05:27:55;0.53;;;0.43;;
36593;SDS011;22603;47.900;8.146;2023-08-06T05:30:41;0.67;;;0.47;;
36593;SDS011;22603;47.900;8.146;2023-08-06T05:33:29;0.20;;;0.20;;
36593;SDS011;22603;47.900;8.146;2023-08-06T05:36:16;1.80;;;0.33;;
36593;SDS011;22603;47.900;8.146;2023-08-06T05:39:03;1.90;;;0.40;;
36593;SDS011;22603;47.900;8.146;2023-08-06T05:41:50;0.83;;;0.40;;
36593;SDS011;22603;47.900;8.146;2023-08-06T05:44:37;0.30;;;0.30;;
36593;SDS011;22603;47.900;8.146;2023-08-06T05:47:24;0.30;;;0.30;;
36593;SDS011;22603;47.900;8.146;2023-08-06T05:50:12;0.50;;;0.40;;
36593;SDS011;22603;47.900;8.146;2023-08-06T05:52:59;0.37;;;0.37;;
36593;SDS011;22603;47.900;8.146;2023-08-06T05:55:46;0.67;;;0.40;;
36593;SDS011;22603;47.900;8.146;2023-08-06T05:58:33;0.30;;;0.30;;
36593;SDS011;22603;47.900;8.146;2023-08-06T06:01:20;0.30;;;0.30;;
36593;SDS011;22603;47.900;8.146;2023-08-06T06:04:06;0.50;;;0.33;;
36593;SDS011;22603;47.900;8.146;2023-08-06T06:06:55;2.43;;;0.53;;
36593;SDS011;22603;47.900;8.146;2023-08-06T06:09:42;0.43;;;0.30;;
36593;SDS011;22603;47.900;8.146;2023-08-06T06:12:29;0.57;;;0.40;;
36593;SDS011;22603;47.900;8.146;2023-08-06T06:15:16;1.20;;;0.50;;
36593;SDS011;22603;47.900;8.146;2023-08-06T06:18:06;0.37;;;0.37;;
36593;SDS011;22603;47.900;8.146;2023-08-06T06:20:52;0.30;;;0.30;;
36593;SDS011;22603;47.900;8.146;2023-08-06T06:23:40;0.30;;;0.30;;
36593;SDS011;22603;47.900;8.146;2023-08-06T06:26:27;0.30;;;0.30;;
36593;SDS011;22603;47.900;8.146;2023-08-06T06:29:14;0.20;;;0.20;;
36593;SDS011;22603;47.900;8.146;2023-08-06T06:32:01;0.20;;;0.20;;
36593;SDS011;22603;47.900;8.146;2023-08-06T06:34:47;0.27;;;0.27;;
36593;SDS011;22603;47.900;8.146;2023-08-06T06:37:34;0.30;;;0.30;;
36593;SDS011;22603;47.900;8.146;2023-08-06T06:40:22;0.20;;;0.20;;
36593;SDS011;22603;47.900;8.146;2023-08-06T06:43:13;0.20;;;0.20;;
36593;SDS011;22603;47.900;8.146;2023-08-06T06:46:00;0.90;;;0.47;;
36593;SDS011;22603;47.900;8.146;2023-08-06T06:48:47;0.30;;;0.30;;
36593;SDS011;22603;47.900;8.146;2023-08-06T06:51:34;0.93;;;0.43;;
36593;SDS011;22603;47.900;8.146;2023-08-06T06:54:23;1.30;;;0.30;;
36593;SDS011;22603;47.900;8.146;2023-08-06T06:57:11;0.30;;;0.30;;
36593;SDS011;22603;47.900;8.146;2023-08-06T06:59:58;0.80;;;0.33;;
36593;SDS011;22603;47.900;8.146;2023-08-06T07:02:44;0.43;;;0.40;;
36593;SDS011;22603;47.900;8.146;2023-08-06T07:05:31;0.20;;;0.20;;
36593;SDS011;22603;47.900;8.146;2023-08-06T07:08:18;0.30;;;0.30;;
36593;SDS011;22603;47.900;8.146;2023-08-06T07:11:06;0.27;;;0.27;;
36593;SDS011;22603;47.900;8.146;2023-08-06T07:13:58;0.20;;;0.20;;
36593;SDS011;22603;47.900;8.146;2023-08-06T07:16:45;0.30;;;0.30;;
36593;SDS011;22603;47.900;8.146;2023-08-06T07:19:32;0.30;;;0.30;;
36593;SDS011;22603;47.900;8.146;2023-08-06T07:22:19;0.40;;;0.40;;
36593;SDS011;22603;47.900;8.146;2023-08-06T07:25:06;0.20;;;0.20;;
36593;SDS011;22603;47.900;8.146;2023-08-06T07:27:53;0.23;;;0.23;;
36593;SDS011;22603;47.900;8.146;2023-08-06T07:30:43;0.30;;;0.30;;
36593;SDS011;22603;47.900;8.146;2023-08-06T07:33:30;0.20;;;0.20;;
36593;SDS011;22603;47.900;8.146;2023-08-06T07:36:17;0.20;;;0.20;;
36593;SDS011;22603;47.900;8.146;2023-08-06T07:39:06;0.40;;;0.40;;
36593;SDS011;22603;47.900;8.146;2023-08-06T07:41:53;0.40;;;0.40;;
36593;SDS011;22603;47.900;8.146;2023-08-06T07:44:40;0.30;;;0.30;;
36593;SDS011;22603;47.900;8.146;2023-08-06T07:47:28;0.40;;;0.40;;
36593;SDS011;22603;47.900;8.146;2023-08-06T07:50:16;0.30;;;0.30;;
36593;SDS011;22603;47.900;8.146;2023-08-06T07:53:02;0.40;;;0.40;;
36593;SDS011;22603;47.900;8.146;2023-08-06T07:55:52;0.30;;;0.30;;
36593;SDS011;22603;47.900;8.146;2023-08-06T07:58:39;0.37;;;0.37;;
36593;SDS011;22603;47.900;8.146;2023-08-06T08:01:26;0.30;;;0.30;;
36593;SDS011;22603;47.900;8.146;2023-08-06T08:04:17;0.63;;;0.43;;
36593;SDS011;22603;47.900;8.146;2023-08-06T08:07:06;0.23;;;0.23;;
36593;SDS011;22603;47.900;8.146;2023-08-06T08:09:53;0.90;;;0.50;;
36593;SDS011;22603;47.900;8.146;2023-08-06T08:12:39;0.60;;;0.50;;
36593;SDS011;22603;47.900;8.146;2023-08-06T08:15:28;0.30;;;0.30;;
36593;SDS011;22603;47.900;8.146;2023-08-06T08:18:15;0.70;;;0.30;;
36593;SDS011;22603;47.900;8.146;2023-08-06T08:21:03;1.17;;;0.40;;
36593;SDS011;22603;47.900;8.146;2023-08-06T08:23:50;0.30;;;0.30;;
36593;SDS011;22603;47.900;8.146;2023-08-06T08:26:37;0.53;;;0.40;;
36593;SDS011;22603;47.900;8.146;2023-08-06T08:29:24;0.60;;;0.30;;
36593;SDS011;22603;47.900;8.146;2023-08-06T08:32:11;0.30;;;0.30;;
36593;SDS011;22603;47.900;8.146;2023-08-06T08:34:57;0.40;;;0.40;;
36593;SDS011;22603;47.900;8.146;2023-08-06T08:37:45;0.47;;;0.47;;
36593;SDS011;22603;47.900;8.146;2023-08-06T08:40:32;0.30;;;0.30;;
36593;SDS011;22603;47.900;8.146;2023-08-06T08:43:21;1.43;;;0.40;;
36593;SDS011;22603;47.900;8.146;2023-08-06T08:46:09;0.83;;;0.30;;
36593;SDS011;22603;47.900;8.146;2023-08-06T08:48:57;0.30;;;0.30;;
36593;SDS011;22603;47.900;8.146;2023-08-06T08:51:46;1.50;;;0.40;;
36593;SDS011;22603;47.900;8.146;2023-08-06T08:54:35;0.30;;;0.30;;
36593;SDS011;22603;47.900;8.146;2023-08-06T08:57:24;0.87;;;0.30;;
36593;SDS011;22603;47.900;8.146;2023-08-06T09:00:11;0.27;;;0.27;;
36593;SDS011;22603;47.900;8.146;2023-08-06T09:02:59;0.30;;;0.30;;
36593;SDS011;22603;47.900;8.146;2023-08-06T09:05:49;0.30;;;0.30;;
36593;SDS011;22603;47.900;8.146;2023-08-06T09:08:39;0.40;;;0.40;;
36593;SDS011;22603;47.900;8.146;2023-08-06T09:11:36;0.30;;;0.30;;
36593;SDS011;22603;47.900;8.146;2023-08-06T09:14:28;0.30;;;0.30;;
36593;SDS011;22603;47.900;8.146;2023-08-06T09:17:16;0.70;;;0.60;;
36593;SDS011;22603;47.900;8.146;2023-08-06T09:20:11;3.77;;;0.30;;
36593;SDS011;22603;47.900;8.146;2023-08-06T09:23:01;0.30;;;0.30;;
36593;SDS011;22603;47.900;8.146;2023-08-06T09:25:56;0.40;;;0.40;;
36593;SDS011;22603;47.900;8.146;2023-08-06T09:28:44;1.70;;;0.30;;
36593;SDS011;22603;47.900;8.146;2023-08-06T09:31:32;0.30;;;0.30;;
36593;SDS011;22603;47.900;8.146;2023-08-06T09:34:20;0.30;;;0.30;;
36593;SDS011;22603;47.900;8.146;2023-08-06T09:37:08;0.40;;;0.40;;
36593;SDS011;22603;47.900;8.146;2023-08-06T09:39:56;0.27;;;0.27;;
36593;SDS011;22603;47.900;8.146;2023-08-06T09:42:43;0.20;;;0.20;;
36593;SDS011;22603;47.900;8.146;2023-08-06T09:45:32;0.30;;;0.30;;
36593;SDS011;22603;47.900;8.146;2023-08-06T09:48:19;0.40;;;0.40;;
36593;SDS011;22603;47.900;8.146;2023-08-06T09:51:11;0.30;;;0.30;;
36593;SDS011;22603;47.900;8.146;2023-08-06T09:54:00;0.40;;;0.40;;
36593;SDS011;22603;47.900;8.146;2023-08-06T09:57:05;0.30;;;0.30;;
36593;SDS011;22603;47.900;8.146;2023-08-06T09:59:52;0.33;;;0.33;;
36593;SDS011;22603;47.900;8.146;2023-08-06T10:02:41;0.30;;;0.30;;
36593;SDS011;22603;47.900;8.146;2023-08-06T10:05:28;0.40;;;0.40;;
36593;SDS011;22603;47.900;8.146;2023-08-06T10:08:18;0.30;;;0.30;;
36593;SDS011;22603;47.900;8.146;2023-08-06T10:11:04;0.40;;;0.40;;
36593;SDS011;22603;47.900;8.146;2023-08-06T10:13:52;0.30;;;0.30;;
36593;SDS011;22603;47.900;8.146;2023-08-06T10:16:43;0.33;;;0.33;;
36593;SDS011;22603;47.900;8.146;2023-08-06T10:19:32;0.40;;;0.40;;
36593;SDS011;22603;47.900;8.146;2023-08-06T10:22:19;0.40;;;0.40;;
36593;SDS011;22603;47.900;8.146;2023-08-06T10:25:06;0.30;;;0.30;;
36593;SDS011;22603;47.900;8.146;2023-08-06T10:27:54;1.67;;;0.40;;
36593;SDS011;22603;47.900;8.146;2023-08-06T10:30:41;0.50;;;0.50;;
36593;SDS011;22603;47.900;8.146;2023-08-06T10:33:39;0.47;;;0.40;;
36593;SDS011;22603;47.900;8.146;2023-08-06T10:36:29;0.40;;;0.40;;
36593;SDS011;22603;47.900;8.146;2023-08-06T10:39:18;0.30;;;0.30;;
36593;SDS011;22603;47.900;8.146;2023-08-06T10:42:19;0.40;;;0.40;;
36593;SDS011;22603;47.900;8.146;2023-08-06T10:45:14;0.40;;;0.40;;
36593;SDS011;22603;47.900;8.146;2023-08-06T10:48:01;0.35;;;0.35;;
36593;SDS011;22603;47.900;8.146;2023-08-06T10:50:49;1.50;;;0.40;;
36593;SDS011;22603;47.900;8.146;2023-08-06T10:53:37;0.40;;;0.40;;
36593;SDS011;22603;47.900;8.146;2023-08-06T10:56:27;0.30;;;0.30;;
36593;SDS011;22603;47.900;8.146;2023-08-06T10:59:14;0.33;;;0.33;;
36593;SDS011;22603;47.900;8.146;2023-08-06T11:02:01;0.33;;;0.33;;
36593;SDS011;22603;47.900;8.146;2023-08-06T11:04:49;0.30;;;0.30;;
36593;SDS011;22603;47.900;8.146;2023-08-06T11:07:37;0.40;;;0.40;;
36593;SDS011;22603;47.900;8.146;2023-08-06T11:10:25;0.30;;;0.30;;
36593;SDS011;22603;47.900;8.146;2023-08-06T11:13:12;0.47;;;0.33;;
36593;SDS011;22603;47.900;8.146;2023-08-06T11:16:03;0.95;;;0.45;;
36593;SDS011;22603;47.900;8.146;2023-08-06T11:18:50;1.33;;;0.40;;
36593;SDS011;22603;47.900;8.146;2023-08-06T11:21:39;0.30;;;0.30;;
36593;SDS011;22603;47.900;8.146;2023-08-06T11:24:28;0.35;;;0.35;;
36593;SDS011;22603;47.900;8.146;2023-08-06T11:27:16;0.35;;;0.35;;
36593;SDS011;22603;47.900;8.146;2023-08-06T11:30:04;0.40;;;0.40;;
36593;SDS011;22603;47.900;8.146;2023-08-06T11:32:51;0.45;;;0.30;;
36593;SDS011;22603;47.900;8.146;2023-08-06T11:35:38;2.38;;;0.32;;
36593;SDS011;22603;47.900;8.146;2023-08-06T11:38:25;0.90;;;0.55;;
36593;SDS011;22603;47.900;8.146;2023-08-06T11:41:13;0.82;;;0.50;;
36593;SDS011;22603;47.900;8.146;2023-08-06T11:44:01;0.30;;;0.30;;
36593;SDS011;22603;47.900;8.146;2023-08-06T11:46:51;0.50;;;0.43;;
36593;SDS011;22603;47.900;8.146;2023-08-06T11:49:41;0.37;;;0.37;;
36593;SDS011;22603;47.900;8.146;2023-08-06T11:52:31;0.33;;;0.33;;
36593;SDS011;22603;47.900;8.146;2023-08-06T11:55:17;0.97;;;0.50;;
36593;SDS011;22603;47.900;8.146;2023-08-06T11:58:09;0.67;;;0.43;;
36593;SDS011;22603;47.900;8.146;2023-08-06T12:00:59;2.33;;;0.40;;
36593;SDS011;22603;47.900;8.146;2023-08-06T12:03:45;1.30;;;0.50;;
36593;SDS011;22603;47.900;8.146;2023-08-06T12:06:41;0.57;;;0.40;;
36593;SDS011;22603;47.900;8.146;2023-08-06T12:09:28;0.60;;;0.47;;
36593;SDS011;22603;47.900;8.146;2023-08-06T12:12:14;0.77;;;0.50;;
36593;SDS011;22603;47.900;8.146;2023-08-06T12:15:03;0.50;;;0.40;;
36593;SDS011;22603;47.900;8.146;2023-08-06T12:17:52;0.30;;;0.30;;
36593;SDS011;22603;47.900;8.146;2023-08-06T12:20:39;0.80;;;0.40;;
36593;SDS011;22603;47.900;8.146;2023-08-06T12:23:26;0.53;;;0.43;;
36593;SDS011;22603;47.900;8.146;2023-08-06T12:26:13;0.40;;;0.40;;
36593;SDS011;22603;47.900;8.146;2023-08-06T12:28:59;0.40;;;0.40;;
36593;SDS011;22603;47.900;8.146;2023-08-06T12:31:47;0.40;;;0.40;;
36593;SDS011;22603;47.900;8.146;2023-08-06T12:34:35;0.50;;;0.40;;
36593;SDS011;22603;47.900;8.146;2023-08-06T12:37:37;0.30;;;0.30;;
36593;SDS011;22603;47.900;8.146;2023-08-06T12:40:25;0.30;;;0.30;;
36593;SDS011;22603;47.900;8.146;2023-08-06T12:43:20;0.40;;;0.40;;
36593;SDS011;22603;47.900;8.146;2023-08-06T12:46:07;4.63;;;0.53;;
36593;SDS011;22603;47.900;8.146;2023-08-06T12:48:55;0.57;;;0.40;;
36593;SDS011;22603;47.900;8.146;2023-08-06T12:51:43;0.30;;;0.30;;
36593;SDS011;22603;47.900;8.146;2023-08-06T12:54:30;1.17;;;0.70;;
36593;SDS011;22603;47.900;8.146;2023-08-06T12:57:21;0.50;;;0.50;;
36593;SDS011;22603;47.900;8.146;2023-08-06T13:00:08;0.53;;;0.53;;
36593;SDS011;22603;47.900;8.146;2023-08-06T13:02:55;0.70;;;0.60;;
36593;SDS011;22603;47.900;8.146;2023-08-06T13:05:42;2.80;;;0.70;;
36593;SDS011;22603;47.900;8.146;2023-08-06T13:08:31;0.83;;;0.60;;
36593;SDS011;22603;47.900;8.146;2023-08-06T13:11:18;0.70;;;0.50;;
36593;SDS011;22603;47.900;8.146;2023-08-06T13:14:05;0.93;;;0.55;;
36593;SDS011;22603;47.900;8.146;2023-08-06T13:16:53;0.73;;;0.63;;
36593;SDS011;22603;47.900;8.146;2023-08-06T13:19:40;1.27;;;0.80;;
36593;SDS011;22603;47.900;8.146;2023-08-06T13:22:27;1.63;;;0.68;;
36593;SDS011;22603;47.900;8.146;2023-08-06T13:25:18;0.80;;;0.50;;
36593;SDS011;22603;47.900;8.146;2023-08-06T13:28:05;0.60;;;0.52;;
36593;SDS011;22603;47.900;8.146;2023-08-06T13:30:52;0.50;;;0.50;;
36593;SDS011;22603;47.900;8.146;2023-08-06T13:33:39;0.60;;;0.60;;
36593;SDS011;22603;47.900;8.146;2023-08-06T13:36:25;1.03;;;0.67;;
36593;SDS011;22603;47.900;8.146;2023-08-06T13:39:14;0.70;;;0.70;;
36593;SDS011;22603;47.900;8.146;2023-08-06T13:42:03;0.80;;;0.70;;
36593;SDS011;22603;47.900;8.146;2023-08-06T13:44:51;1.57;;;0.80;;
36593;SDS011;22603;47.900;8.146;2023-08-06T13:47:37;0.97;;;0.73;;
36593;SDS011;22603;47.900;8.146;2023-08-06T13:50:24;1.67;;;0.80;;
36593;SDS011;22603;47.900;8.146;2023-08-06T13:53:12;2.13;;;0.90;;
36593;SDS011;22603;47.900;8.146;2023-08-06T13:55:59;0.60;;;0.50;;
36593;SDS011;22603;47.900;8.146;2023-08-06T13:58:49;1.43;;;0.70;;
36593;SDS011;22603;47.900;8.146;2023-08-06T14:01:37;0.60;;;0.60;;
36593;SDS011;22603;47.900;8.146;2023-08-06T14:04:35;0.73;;;0.60;;
36593;SDS011;22603;47.900;8.146;2023-08-06T14:07:22;1.37;;;0.77;;
36593;SDS011;22603;47.900;8.146;2023-08-06T14:10:09;1.57;;;0.90;;
36593;SDS011;22603;47.900;8.146;2023-08-06T14:12:56;1.10;;;0.67;;
36593;SDS011;22603;47.900;8.146;2023-08-06T14:15:56;2.20;;;0.80;;
36593;SDS011;22603;47.900;8.146;2023-08-06T14:18:42;2.93;;;0.87;;
36593;SDS011;22603;47.900;8.146;2023-08-06T14:21:32;0.70;;;0.70;;
36593;SDS011;22603;47.900;8.146;2023-08-06T14:24:19;2.17;;;0.87;;
36593;SDS011;22603;47.900;8.146;2023-08-06T14:27:06;1.63;;;0.70;;
36593;SDS011;22603;47.900;8.146;2023-08-06T14:29:53;1.57;;;0.83;;
36593;SDS011;22603;47.900;8.146;2023-08-06T14:32:41;1.90;;;0.90;;
36593;SDS011;22603;47.900;8.146;2023-08-06T14:35:28;1.87;;;0.87;;
36593;SDS011;22603;47.900;8.146;2023-08-06T14:38:15;0.83;;;0.77;;
36593;SDS011;22603;47.900;8.146;2023-08-06T14:41:01;1.07;;;0.73;;
36593;SDS011;22603;47.900;8.146;2023-08-06T14:43:51;1.27;;;0.90;;
36593;SDS011;22603;47.900;8.146;2023-08-06T14:46:38;1.47;;;0.77;;
36593;SDS011;22603;47.900;8.146;2023-08-06T14:49:29;2.10;;;0.97;;
36593;SDS011;22603;47.900;8.146;2023-08-06T14:52:16;1.30;;;0.80;;
36593;SDS011;22603;47.900;8.146;2023-08-06T14:55:03;1.10;;;0.80;;
36593;SDS011;22603;47.900;8.146;2023-08-06T14:57:51;3.77;;;0.73;;
36593;SDS011;22603;47.900;8.146;2023-08-06T15:00:38;1.30;;;0.87;;
36593;SDS011;22603;47.900;8.146;2023-08-06T15:03:25;1.23;;;0.70;;
36593;SDS011;22603;47.900;8.146;2023-08-06T15:06:14;3.90;;;0.90;;
36593;SDS011;22603;47.900;8.146;2023-08-06T15:09:01;1.57;;;0.90;;
36593;SDS011;22603;47.900;8.146;2023-08-06T15:11:48;1.13;;;0.80;;
36593;SDS011;22603;47.900;8.146;2023-08-06T15:14:35;0.90;;;0.70;;
36593;SDS011;22603;47.900;8.146;2023-08-06T15:17:22;3.60;;;0.70;;
36593;SDS011;22603;47.900;8.146;2023-08-06T15:20:09;1.10;;;0.70;;
36593;SDS011;22603;47.900;8.146;2023-08-06T15:22:59;1.50;;;1.00;;
36593;SDS011;22603;47.900;8.146;2023-08-06T15:25:45;3.67;;;1.10;;
36593;SDS011;22603;47.900;8.146;2023-08-06T15:28:32;4.73;;;0.93;;
36593;SDS011;22603;47.900;8.146;2023-08-06T15:31:19;0.90;;;0.80;;
36593;SDS011;22603;47.900;8.146;2023-08-06T15:34:07;1.50;;;1.00;;
36593;SDS011;22603;47.900;8.146;2023-08-06T15:36:54;2.03;;;0.83;;
36593;SDS011;22603;47.900;8.146;2023-08-06T15:39:42;1.60;;;0.80;;
36593;SDS011;22603;47.900;8.146;2023-08-06T15:42:28;2.03;;;1.10;;
36593;SDS011;22603;47.900;8.146;2023-08-06T15:45:15;3.43;;;1.03;;
36593;SDS011;22603;47.900;8.146;2023-08-06T15:48:02;3.20;;;1.10;;
36593;SDS011;22603;47.900;8.146;2023-08-06T15:50:49;3.33;;;1.10;;
36593;SDS011;22603;47.900;8.146;2023-08-06T15:53:36;3.27;;;1.07;;
36593;SDS011;22603;47.900;8.146;2023-08-06T15:56:25;2.57;;;0.93;;
36593;SDS011;22603;47.900;8.146;2023-08-06T15:59:21;2.27;;;0.90;;
36593;SDS011;22603;47.900;8.146;2023-08-06T16:02:09;2.37;;;1.00;;
36593;SDS011;22603;47.900;8.146;2023-08-06T16:04:58;3.27;;;1.00;;
36593;SDS011;22603;47.900;8.146;2023-08-06T16:07:46;5.50;;;1.33;;
36593;SDS011;22603;47.900;8.146;2023-08-06T16:10:35;1.93;;;1.07;;
36593;SDS011;22603;47.900;8.146;2023-08-06T16:13:23;3.23;;;1.33;;
36593;SDS011;22603;47.900;8.146;2023-08-06T16:16:10;3.37;;;1.10;;
36593;SDS011;22603;47.900;8.146;2023-08-06T16:18:57;2.63;;;1.20;;
36593;SDS011;22603;47.900;8.146;2023-08-06T16:21:43;2.63;;;1.07;;
36593;SDS011;22603;47.900;8.146;2023-08-06T16:24:30;1.63;;;1.00;;
36593;SDS011;22603;47.900;8.146;2023-08-06T16:27:17;3.13;;;1.20;;
36593;SDS011;22603;47.900;8.146;2023-08-06T16:30:05;5.03;;;1.20;;
36593;SDS011;22603;47.900;8.146;2023-08-06T16:32:53;2.87;;;1.10;;
36593;SDS011;22603;47.900;8.146;2023-08-06T16:35:41;1.97;;;0.97;;
36593;SDS011;22603;47.900;8.146;2023-08-06T16:38:28;3.40;;;1.13;;
36593;SDS011;22603;47.900;8.146;2023-08-06T16:41:15;2.23;;;1.00;;
36593;SDS011;22603;47.900;8.146;2023-08-06T16:44:03;3.40;;;1.10;;
36593;SDS011;22603;47.900;8.146;2023-08-06T16:46:51;3.73;;;1.13;;
36593;SDS011;22603;47.900;8.146;2023-08-06T16:49:38;5.67;;;1.30;;
36593;SDS011;22603;47.900;8.146;2023-08-06T16:52:25;3.60;;;1.23;;